Capron, Oklahoma
Current Conditions -  °F | °C
As of 6:15 AM on Monday 26 Jan 2015 (Local Time) from KAVK Reporting Station
Scattered Clouds Scattered Clouds  
Wind Chill: -5°   Ceiling: Unl
Heat Index: -1°   Visibility: 10mi
Dew Point: -5°   Wind: 7mph
Humidity: 75%   Direction: 240°WSW
Pressure: 30.09"   Gusts: NA
Location:  36.8367°N, 98.8022°W
Report Text: KAVK 261215Z AUTO 24006KT 10SM SCT015 M01/M05 A3009 RMK AO2
Loading
Personal Weather Stations






























Interactive Weather Map New forecast layout! Learn more

10-Day Weather Forecast

Advertisements
Track Severe Weather on mobile